createdAt,value
2018-06-22T00:00:35.616Z,0.00
2018-06-22T00:01:35.578Z,0.00
2018-06-22T00:02:35.585Z,0.00
2018-06-22T00:03:35.549Z,0.00
2018-06-22T00:04:35.518Z,0.00
2018-06-22T00:05:35.523Z,0.00
2018-06-22T00:06:35.505Z,0.00
2018-06-22T00:07:35.454Z,0.00
2018-06-22T00:08:35.458Z,0.00
2018-06-22T00:09:35.438Z,0.00
2018-06-22T00:10:35.392Z,0.00
2018-06-22T00:11:35.395Z,0.00
2018-06-22T00:12:35.381Z,0.00
2018-06-22T00:13:35.354Z,0.00
2018-06-22T00:14:35.307Z,0.00
2018-06-22T00:15:35.316Z,0.00
2018-06-22T00:16:35.288Z,0.00
2018-06-22T00:17:35.246Z,0.00
2018-06-22T00:18:35.225Z,0.00
2018-06-22T00:19:35.205Z,0.00
2018-06-22T00:20:35.184Z,0.00
2018-06-22T00:21:35.166Z,0.00
2018-06-22T00:22:35.148Z,0.00
2018-06-22T00:23:35.126Z,0.00
2018-06-22T00:24:35.106Z,0.00
2018-06-22T00:25:35.080Z,0.00
2018-06-22T00:26:35.061Z,0.00
2018-06-22T00:27:35.069Z,0.00
2018-06-22T00:28:35.045Z,0.00
2018-06-22T00:29:35.024Z,0.00
2018-06-22T00:30:34.981Z,0.00
2018-06-22T00:31:34.959Z,0.00
2018-06-22T00:32:34.938Z,0.00
2018-06-22T00:33:34.918Z,0.00
2018-06-22T00:34:34.925Z,0.00
2018-06-22T00:35:34.876Z,0.00
2018-06-22T00:36:34.858Z,0.00
2018-06-22T00:37:34.834Z,0.00
2018-06-22T00:38:34.877Z,0.00
2018-06-22T00:39:34.908Z,0.00
2018-06-22T00:40:34.779Z,0.00
2018-06-22T00:41:34.760Z,0.00
2018-06-22T00:42:34.733Z,0.00
2018-06-22T00:43:34.723Z,0.00
2018-06-22T00:44:34.719Z,0.00
2018-06-22T00:45:34.670Z,0.00
2018-06-22T00:46:34.675Z,0.00
2018-06-22T00:47:34.624Z,0.00
2018-06-22T00:48:34.612Z,0.00
2018-06-22T00:49:34.591Z,0.00
2018-06-22T00:50:34.566Z,0.00
2018-06-22T00:51:34.558Z,0.00
2018-06-22T00:52:34.555Z,0.00
2018-06-22T00:53:34.519Z,0.00
2018-06-22T00:54:34.494Z,0.00
2018-06-22T00:55:34.467Z,0.00
2018-06-22T00:56:34.446Z,0.00
2018-06-22T00:57:34.453Z,0.00
2018-06-22T00:58:34.440Z,0.00
2018-06-22T00:59:34.408Z,0.00
2018-06-22T01:00:34.363Z,0.00
2018-06-22T01:01:34.342Z,0.00
2018-06-22T01:02:34.353Z,0.00
2018-06-22T01:03:34.328Z,0.00
2018-06-22T01:04:34.308Z,0.00
2018-06-22T01:05:34.260Z,0.00
2018-06-22T01:06:34.242Z,0.00
2018-06-22T01:07:34.245Z,0.00
2018-06-22T01:08:34.201Z,0.00
2018-06-22T01:09:34.179Z,0.00
2018-06-22T01:10:34.154Z,0.00
2018-06-22T01:11:34.132Z,0.00
2018-06-22T01:12:34.117Z,0.00
2018-06-22T01:13:34.107Z,0.00
2018-06-22T01:14:34.098Z,0.00
2018-06-22T01:15:34.077Z,0.00
2018-06-22T01:16:34.044Z,0.00
2018-06-22T01:17:34.035Z,0.00
2018-06-22T01:18:34.014Z,0.00
2018-06-22T01:19:33.968Z,0.00
2018-06-22T01:20:33.945Z,0.00
2018-06-22T01:21:33.952Z,0.00
2018-06-22T01:22:33.928Z,0.00
2018-06-22T01:23:33.885Z,0.00
2018-06-22T01:24:33.886Z,0.00
2018-06-22T01:25:33.867Z,0.00
2018-06-22T01:26:33.834Z,0.00
2018-06-22T01:27:33.823Z,0.00
2018-06-22T01:28:33.787Z,0.00
2018-06-22T01:29:33.782Z,0.00
2018-06-22T01:30:33.759Z,0.00
2018-06-22T01:31:33.744Z,0.00
2018-06-22T01:32:33.716Z,0.00
2018-06-22T01:33:33.700Z,0.00
2018-06-22T01:34:33.665Z,0.00
2018-06-22T01:35:33.657Z,0.00
2018-06-22T01:36:33.606Z,0.00
2018-06-22T01:37:33.586Z,0.00
2018-06-22T01:38:33.564Z,0.00
2018-06-22T01:39:33.543Z,0.00
2018-06-22T01:40:33.518Z,0.00
2018-06-22T01:41:33.530Z,0.00
2018-06-22T01:42:33.507Z,0.00
2018-06-22T01:43:33.459Z,0.00
2018-06-22T01:44:33.464Z,0.00
2018-06-22T01:45:33.414Z,0.00
2018-06-22T01:46:33.425Z,0.00
2018-06-22T01:47:33.377Z,0.00
2018-06-22T01:48:33.360Z,0.00
2018-06-22T01:49:33.334Z,0.00
2018-06-22T01:50:33.313Z,0.00
2018-06-22T01:51:33.283Z,0.00
2018-06-22T01:52:33.272Z,0.00
2018-06-22T01:53:33.247Z,0.00
2018-06-22T01:54:33.227Z,0.00
2018-06-22T01:55:33.204Z,0.00
2018-06-22T01:56:33.180Z,0.00
2018-06-22T01:57:33.165Z,0.00
2018-06-22T01:58:33.140Z,0.00
2018-06-22T01:59:33.153Z,0.00
2018-06-22T02:00:33.103Z,0.00
2018-06-22T02:01:33.089Z,0.00
2018-06-22T02:02:33.088Z,0.00
2018-06-22T02:03:33.054Z,0.00
2018-06-22T02:04:33.016Z,0.00
2018-06-22T02:05:32.999Z,0.00
2018-06-22T02:06:32.973Z,0.00
2018-06-22T02:07:32.961Z,0.00
2018-06-22T02:08:32.962Z,0.00
2018-06-22T02:09:32.914Z,0.00
2018-06-22T02:10:32.894Z,0.00
2018-06-22T02:11:32.873Z,0.00
2018-06-22T02:12:32.877Z,0.00
2018-06-22T02:13:32.855Z,0.00
2018-06-22T02:14:32.833Z,0.00
2018-06-22T02:15:32.791Z,0.00
2018-06-22T02:16:32.768Z,0.00
2018-06-22T02:17:32.774Z,0.00
2018-06-22T02:18:32.724Z,0.00
2018-06-22T02:19:32.714Z,0.00
2018-06-22T02:20:32.692Z,0.00
2018-06-22T02:21:32.662Z,0.00
2018-06-22T02:22:32.664Z,0.00
2018-06-22T02:23:32.686Z,0.00
2018-06-22T02:24:32.682Z,0.00
2018-06-22T02:25:32.629Z,0.00
2018-06-22T02:26:32.637Z,0.00
2018-06-22T02:27:32.591Z,0.00
2018-06-22T02:28:32.594Z,0.00
2018-06-22T02:29:32.548Z,0.00
2018-06-22T02:30:32.565Z,0.00
2018-06-22T02:31:32.477Z,0.00
2018-06-22T02:32:32.458Z,0.00
2018-06-22T02:33:32.410Z,0.00
2018-06-22T02:34:32.387Z,0.00
2018-06-22T02:35:32.393Z,0.00
2018-06-22T02:36:32.376Z,0.00
2018-06-22T02:37:32.343Z,0.00
2018-06-22T02:38:32.330Z,0.00
2018-06-22T02:39:32.311Z,0.00
2018-06-22T02:40:32.288Z,0.00
2018-06-22T02:41:32.244Z,0.00
2018-06-22T02:42:32.251Z,0.00
2018-06-22T02:43:32.245Z,0.00
2018-06-22T02:44:32.205Z,0.00
2018-06-22T02:45:32.169Z,0.00
2018-06-22T02:46:32.134Z,0.00
2018-06-22T02:47:32.139Z,0.00
2018-06-22T02:48:32.112Z,0.00
2018-06-22T02:49:32.072Z,0.00
2018-06-22T02:50:32.056Z,0.00
2018-06-22T02:51:32.041Z,0.00
2018-06-22T02:52:32.036Z,0.00
2018-06-22T02:53:31.987Z,0.00
2018-06-22T02:54:31.966Z,0.00
2018-06-22T02:55:31.951Z,0.00
2018-06-22T02:56:31.927Z,0.00
2018-06-22T02:57:31.897Z,0.00
2018-06-22T02:58:31.885Z,0.00
2018-06-22T02:59:31.876Z,0.00
2018-06-22T03:00:31.868Z,0.00
2018-06-22T03:01:31.824Z,0.00
2018-06-22T03:02:31.816Z,0.00
2018-06-22T03:03:31.801Z,0.00
2018-06-22T03:04:31.763Z,0.00
2018-06-22T03:05:31.749Z,0.00
2018-06-22T03:06:31.723Z,0.00
2018-06-22T03:07:31.693Z,0.00
2018-06-22T03:08:31.669Z,0.00
2018-06-22T03:09:31.656Z,0.00
2018-06-22T03:10:31.628Z,0.00
2018-06-22T03:11:31.605Z,0.00
2018-06-22T03:12:31.584Z,0.00
2018-06-22T03:13:31.563Z,0.00
2018-06-22T03:14:31.556Z,0.00
2018-06-22T03:15:31.595Z,0.00
2018-06-22T03:16:31.499Z,0.00
2018-06-22T03:17:31.482Z,0.00
2018-06-22T03:18:31.487Z,0.00
2018-06-22T03:19:31.462Z,0.00
2018-06-22T03:20:31.438Z,0.00
2018-06-22T03:21:31.416Z,0.00
2018-06-22T03:22:31.371Z,0.00
2018-06-22T03:23:31.356Z,0.00
2018-06-22T03:24:31.330Z,0.00
2018-06-22T03:25:31.305Z,0.00
2018-06-22T03:26:31.310Z,0.00
2018-06-22T03:27:31.273Z,0.00
2018-06-22T03:28:31.253Z,0.00
2018-06-22T03:29:31.219Z,0.00
2018-06-22T03:30:31.210Z,0.00
2018-06-22T03:31:31.203Z,0.00
2018-06-22T03:32:31.151Z,0.00
2018-06-22T03:33:31.132Z,0.00
2018-06-22T03:34:31.107Z,0.00
2018-06-22T03:35:31.091Z,0.00
2018-06-22T03:36:31.068Z,0.00
2018-06-22T03:37:31.071Z,0.00
2018-06-22T03:38:31.024Z,0.00
2018-06-22T03:39:31.020Z,0.00
2018-06-22T03:40:30.982Z,0.00
2018-06-22T03:41:30.966Z,0.00
2018-06-22T03:42:30.937Z,0.00
2018-06-22T03:43:30.916Z,0.00
2018-06-22T03:44:30.899Z,0.00
2018-06-22T03:45:30.888Z,0.00
2018-06-22T03:46:30.850Z,0.00
2018-06-22T03:47:30.840Z,0.00
2018-06-22T03:48:30.810Z,0.00
2018-06-22T03:49:30.789Z,0.00
2018-06-22T03:50:30.760Z,0.00
2018-06-22T03:51:30.741Z,0.00
2018-06-22T03:52:30.724Z,0.00
2018-06-22T03:53:30.709Z,0.00
2018-06-22T03:54:30.686Z,0.00
2018-06-22T03:55:30.665Z,0.00
2018-06-22T03:56:30.660Z,0.00
2018-06-22T03:57:30.626Z,0.00
2018-06-22T03:58:30.602Z,0.00
2018-06-22T03:59:30.594Z,0.00
2018-06-22T04:00:30.570Z,0.00
2018-06-22T04:01:30.524Z,0.00
2018-06-22T04:02:30.499Z,0.00
2018-06-22T04:03:30.506Z,0.00
2018-06-22T04:04:30.458Z,0.00
2018-06-22T04:05:30.461Z,0.00
2018-06-22T04:06:30.414Z,0.00
2018-06-22T04:07:30.414Z,0.00
2018-06-22T04:08:30.377Z,0.00
2018-06-22T04:09:30.372Z,0.00
2018-06-22T04:10:30.322Z,0.00
2018-06-22T04:11:30.300Z,0.00
2018-06-22T04:12:30.282Z,0.00
2018-06-22T04:13:30.263Z,0.00
2018-06-22T04:14:30.259Z,0.00
2018-06-22T04:15:30.215Z,0.00
2018-06-22T04:16:30.194Z,0.00
2018-06-22T04:17:30.196Z,0.00
2018-06-22T04:18:30.153Z,0.00
2018-06-22T04:19:30.126Z,0.00
2018-06-22T04:20:30.105Z,0.00
2018-06-22T04:21:30.104Z,0.00
2018-06-22T04:22:30.088Z,0.00
2018-06-22T04:23:30.064Z,0.00
2018-06-22T04:24:30.074Z,0.00
2018-06-22T04:25:30.000Z,0.00
2018-06-22T04:26:29.971Z,0.00
2018-06-22T04:27:29.960Z,0.00
2018-06-22T04:28:29.933Z,0.00
2018-06-22T04:29:29.908Z,0.00
2018-06-22T04:30:29.883Z,0.00
2018-06-22T04:31:29.859Z,0.00
2018-06-22T04:32:29.833Z,0.00
2018-06-22T04:33:29.817Z,0.00
2018-06-22T04:34:29.810Z,0.00
2018-06-22T04:35:29.770Z,0.00
2018-06-22T04:36:29.774Z,0.00
2018-06-22T04:37:29.759Z,0.00
2018-06-22T04:38:29.729Z,0.00
2018-06-22T04:39:29.697Z,0.00
2018-06-22T04:40:29.663Z,0.00
2018-06-22T04:41:29.639Z,0.00
2018-06-22T04:42:29.615Z,0.00
2018-06-22T04:43:29.618Z,0.00
2018-06-22T04:44:29.596Z,0.00
2018-06-22T04:45:29.551Z,0.00
2018-06-22T04:46:29.526Z,0.00
2018-06-22T04:47:29.516Z,0.00
2018-06-22T04:48:29.495Z,0.00
2018-06-22T04:49:29.458Z,0.00
2018-06-22T04:50:29.450Z,0.00
2018-06-22T04:51:29.418Z,0.00
2018-06-22T04:52:29.396Z,0.00
2018-06-22T04:53:29.398Z,0.00
2018-06-22T04:54:29.349Z,0.00
2018-06-22T04:55:29.350Z,0.00
2018-06-22T04:56:29.302Z,0.00
2018-06-22T04:57:29.283Z,0.00
2018-06-22T04:58:29.291Z,0.00
2018-06-22T04:59:29.246Z,0.00
2018-06-22T05:00:29.245Z,0.00
2018-06-22T05:01:29.216Z,0.00
2018-06-22T05:02:29.182Z,0.00
2018-06-22T05:03:29.148Z,0.00
2018-06-22T05:04:29.121Z,0.00
2018-06-22T05:05:29.102Z,0.00
2018-06-22T05:06:29.104Z,0.00
2018-06-22T05:07:29.056Z,0.00
2018-06-22T05:08:29.039Z,0.00
2018-06-22T05:09:29.013Z,0.00
2018-06-22T05:10:29.018Z,0.00
2018-06-22T05:11:29.015Z,0.00
2018-06-22T05:12:28.949Z,0.00
2018-06-22T05:13:28.925Z,0.00
2018-06-22T05:14:28.907Z,0.00
2018-06-22T05:15:28.906Z,0.00
2018-06-22T05:16:28.884Z,0.00
2018-06-22T05:17:28.857Z,0.00
2018-06-22T05:18:28.811Z,0.00
2018-06-22T05:19:28.788Z,0.00
2018-06-22T05:20:28.769Z,0.00
2018-06-22T05:21:28.743Z,0.00
2018-06-22T05:22:28.721Z,0.00
2018-06-22T05:23:28.711Z,0.00
2018-06-22T05:24:28.677Z,0.00
2018-06-22T05:25:28.680Z,0.00
2018-06-22T05:26:28.632Z,0.00
2018-06-22T05:27:28.612Z,0.00
2018-06-22T05:28:28.611Z,0.00
2018-06-22T05:29:28.564Z,0.00
2018-06-22T05:30:28.556Z,0.00
2018-06-22T05:31:28.526Z,0.00
2018-06-22T05:32:28.499Z,0.00
2018-06-22T05:33:28.497Z,0.00
2018-06-22T05:34:28.452Z,0.00
2018-06-22T05:35:28.431Z,0.00
2018-06-22T05:36:28.409Z,0.00
2018-06-22T05:37:28.382Z,0.00
2018-06-22T05:38:28.392Z,0.00
2018-06-22T05:39:28.346Z,0.00
2018-06-22T05:40:28.344Z,0.00
2018-06-22T05:41:28.313Z,0.00
2018-06-22T05:42:28.296Z,0.00
2018-06-22T05:43:28.260Z,0.00
2018-06-22T05:44:28.225Z,0.00
2018-06-22T05:45:28.217Z,0.00
2018-06-22T05:46:28.185Z,0.00
2018-06-22T05:47:28.172Z,0.00
2018-06-22T05:48:28.135Z,0.00
2018-06-22T05:49:28.112Z,0.00
2018-06-22T05:50:28.119Z,0.00
2018-06-22T05:51:28.097Z,0.00
2018-06-22T05:52:28.057Z,0.00
2018-06-22T05:53:28.024Z,0.00
2018-06-22T05:54:28.019Z,0.00
2018-06-22T05:55:27.978Z,0.00
2018-06-22T05:56:27.976Z,0.00
2018-06-22T05:57:27.961Z,0.00
2018-06-22T05:58:27.912Z,0.00
2018-06-22T05:59:27.921Z,0.00
2018-06-22T06:00:27.892Z,0.00
2018-06-22T06:01:27.841Z,0.00
2018-06-22T06:02:27.825Z,0.00
2018-06-22T06:03:27.868Z,0.00
2018-06-22T06:04:27.800Z,0.00
2018-06-22T06:05:27.763Z,0.00
2018-06-22T06:06:27.745Z,0.00
2018-06-22T06:07:27.705Z,0.00
2018-06-22T06:08:27.685Z,0.00
2018-06-22T06:09:27.684Z,0.00
2018-06-22T06:10:27.665Z,0.00
2018-06-22T06:11:27.642Z,0.00
2018-06-22T06:12:27.636Z,0.00
2018-06-22T06:13:27.588Z,0.00
2018-06-22T06:14:27.574Z,0.00
2018-06-22T06:15:27.548Z,0.00
2018-06-22T06:16:27.502Z,0.00
2018-06-22T06:17:27.480Z,0.00
2018-06-22T06:18:27.456Z,0.00
2018-06-22T06:19:27.457Z,0.00
2018-06-22T06:20:27.413Z,0.00
2018-06-22T06:21:27.388Z,0.00
2018-06-22T06:22:27.363Z,0.00
2018-06-22T06:23:27.341Z,0.00
2018-06-22T06:24:27.347Z,0.00
2018-06-22T06:25:27.292Z,0.00
2018-06-22T06:26:27.303Z,0.00
2018-06-22T06:27:27.276Z,0.00
2018-06-22T06:28:27.241Z,0.00
2018-06-22T06:29:27.229Z,0.00
2018-06-22T06:30:27.212Z,0.00
2018-06-22T06:31:27.186Z,0.00
2018-06-22T06:32:27.139Z,0.00
2018-06-22T06:33:27.119Z,0.00
2018-06-22T06:34:27.152Z,0.00
2018-06-22T06:35:27.071Z,0.00
2018-06-22T06:36:27.045Z,0.00
2018-06-22T06:37:27.049Z,0.00
2018-06-22T06:38:27.008Z,0.00
2018-06-22T06:39:27.005Z,0.00
2018-06-22T06:40:26.958Z,0.00
2018-06-22T06:41:26.957Z,0.00
2018-06-22T06:42:26.915Z,0.00
2018-06-22T06:43:26.887Z,0.00
2018-06-22T06:44:26.964Z,0.00
2018-06-22T06:45:26.841Z,0.00
2018-06-22T06:46:26.821Z,0.00
2018-06-22T06:47:26.823Z,0.00
2018-06-22T06:48:26.799Z,0.00
2018-06-22T06:49:26.786Z,0.00
2018-06-22T06:50:26.731Z,0.00
2018-06-22T06:51:26.705Z,0.00
2018-06-22T06:52:26.704Z,0.00
2018-06-22T06:53:26.659Z,0.00
2018-06-22T06:54:26.660Z,0.00
2018-06-22T06:55:26.643Z,0.00
2018-06-22T06:56:26.589Z,0.00
2018-06-22T06:57:26.569Z,0.00
2018-06-22T06:58:26.570Z,0.00
2018-06-22T06:59:26.533Z,0.00
2018-06-22T07:00:26.525Z,0.00
2018-06-22T07:01:26.485Z,0.00
2018-06-22T07:02:26.496Z,0.00
2018-06-22T07:03:26.454Z,0.00
2018-06-22T07:04:26.407Z,0.00
2018-06-22T07:05:26.395Z,0.00
2018-06-22T07:06:26.361Z,0.00
2018-06-22T07:07:26.335Z,0.00
2018-06-22T07:08:26.330Z,0.00
2018-06-22T07:09:26.314Z,0.00
2018-06-22T07:10:26.265Z,0.00
2018-06-22T07:11:26.254Z,0.00
2018-06-22T07:12:26.252Z,0.00
2018-06-22T07:13:26.220Z,0.00
2018-06-22T07:14:26.228Z,0.00
2018-06-22T07:15:26.161Z,0.00
2018-06-22T07:16:26.158Z,0.00
2018-06-22T07:17:26.133Z,0.00
2018-06-22T07:18:26.085Z,0.00
2018-06-22T07:19:26.085Z,0.00
2018-06-22T07:20:26.036Z,0.00
2018-06-22T07:21:26.043Z,0.00
2018-06-22T07:22:26.015Z,0.00
2018-06-22T07:23:25.997Z,0.00
2018-06-22T07:24:25.959Z,0.00
2018-06-22T07:25:25.948Z,0.00
2018-06-22T07:26:25.897Z,0.00
2018-06-22T07:27:25.878Z,0.00
2018-06-22T07:28:25.878Z,0.00
2018-06-22T07:29:25.828Z,0.00
2018-06-22T07:30:25.806Z,0.00
2018-06-22T07:31:25.811Z,0.00
2018-06-22T07:32:25.760Z,0.00
2018-06-22T07:33:25.764Z,0.00
2018-06-22T07:34:25.728Z,0.00
2018-06-22T07:35:25.694Z,0.00
2018-06-22T07:36:25.680Z,0.00
2018-06-22T07:37:25.651Z,0.00
2018-06-22T07:38:25.623Z,0.00
2018-06-22T07:39:25.609Z,0.00
2018-06-22T07:40:25.608Z,0.00
2018-06-22T07:41:25.550Z,0.00
2018-06-22T07:42:25.536Z,0.00
2018-06-22T07:43:25.536Z,0.00
2018-06-22T07:44:25.482Z,0.00
2018-06-22T07:45:25.487Z,0.00
2018-06-22T07:46:25.441Z,0.00
2018-06-22T07:47:25.445Z,0.00
2018-06-22T07:48:25.417Z,0.00
2018-06-22T07:49:25.370Z,0.00
2018-06-22T07:50:25.343Z,0.00
2018-06-22T07:51:25.351Z,0.00
2018-06-22T07:52:25.309Z,0.00
2018-06-22T07:53:25.277Z,0.00
2018-06-22T07:54:25.272Z,0.00
2018-06-22T07:55:25.228Z,0.00
2018-06-22T07:56:25.233Z,0.00
2018-06-22T07:57:25.194Z,0.00
2018-06-22T07:58:25.159Z,0.00
2018-06-22T07:59:25.152Z,0.00
2018-06-22T08:00:25.121Z,0.00
2018-06-22T08:01:25.106Z,0.00
2018-06-22T08:02:25.100Z,0.00
2018-06-22T08:03:25.049Z,0.00
2018-06-22T08:04:25.057Z,0.00
2018-06-22T08:05:25.027Z,0.00
2018-06-22T08:06:24.978Z,0.00
2018-06-22T08:07:24.981Z,0.00
2018-06-22T08:08:24.932Z,0.00
2018-06-22T08:09:24.904Z,0.00
2018-06-22T08:10:24.910Z,0.00
2018-06-22T08:11:24.863Z,0.00
2018-06-22T08:12:24.843Z,0.00
2018-06-22T08:13:24.842Z,0.00
2018-06-22T08:14:24.792Z,0.00
2018-06-22T08:15:24.774Z,0.00
2018-06-22T08:16:24.749Z,0.00
2018-06-22T08:17:24.746Z,0.00
2018-06-22T08:18:24.724Z,0.00
2018-06-22T08:19:24.674Z,0.00
2018-06-22T08:20:24.652Z,0.00
2018-06-22T08:21:24.652Z,0.00
2018-06-22T08:22:24.613Z,0.00
2018-06-22T08:23:24.589Z,0.00
2018-06-22T08:24:24.553Z,0.00
2018-06-22T08:25:24.539Z,0.00
2018-06-22T08:26:24.525Z,0.00
2018-06-22T08:27:24.497Z,0.00
2018-06-22T08:28:24.469Z,0.00
2018-06-22T08:29:24.439Z,0.00
2018-06-22T08:30:24.415Z,0.00
2018-06-22T08:31:24.406Z,0.00
2018-06-22T08:32:24.373Z,0.00
2018-06-22T08:33:24.346Z,0.00
2018-06-22T08:34:24.333Z,0.00
2018-06-22T08:35:24.300Z,0.00
2018-06-22T08:36:24.281Z,0.00
2018-06-22T08:37:24.253Z,0.00
2018-06-22T08:38:24.259Z,0.00
2018-06-22T08:39:24.204Z,0.00
2018-06-22T08:40:24.213Z,0.00
2018-06-22T08:41:24.161Z,0.00
2018-06-22T08:42:24.142Z,0.00
2018-06-22T08:43:24.112Z,0.00
2018-06-22T08:44:24.114Z,0.00
2018-06-22T08:45:24.097Z,0.00
2018-06-22T08:46:24.042Z,0.00
2018-06-22T08:47:24.026Z,0.00
2018-06-22T08:48:23.999Z,0.00
2018-06-22T08:49:23.977Z,0.00
2018-06-22T08:50:23.950Z,0.00
2018-06-22T08:51:23.953Z,0.00
2018-06-22T08:52:23.903Z,0.00
2018-06-22T08:53:23.877Z,0.00
2018-06-22T08:54:23.886Z,0.00
2018-06-22T08:55:23.834Z,0.00
2018-06-22T08:56:23.836Z,0.00
2018-06-22T08:57:23.792Z,0.00
2018-06-22T08:58:23.787Z,0.00
2018-06-22T08:59:23.764Z,0.00
2018-06-22T09:00:23.715Z,0.00
2018-06-22T09:01:23.811Z,0.00
2018-06-22T09:02:23.697Z,0.00
2018-06-22T09:03:23.650Z,0.00
2018-06-22T09:04:23.644Z,0.00
2018-06-22T09:05:23.599Z,0.00
2018-06-22T09:06:23.600Z,0.00
2018-06-22T09:07:23.577Z,0.00
2018-06-22T09:08:23.534Z,0.00
2018-06-22T09:09:23.518Z,0.00
2018-06-22T09:10:23.481Z,0.00
2018-06-22T09:11:23.456Z,0.00
2018-06-22T09:12:23.457Z,0.00
2018-06-22T09:13:23.408Z,0.00
2018-06-22T09:14:23.418Z,0.00
2018-06-22T09:15:23.371Z,0.00
2018-06-22T09:16:23.367Z,0.00
2018-06-22T09:17:23.341Z,0.00
2018-06-22T09:18:23.292Z,0.00
2018-06-22T09:19:23.293Z,0.00
2018-06-22T09:20:23.269Z,0.00
2018-06-22T09:21:23.219Z,4.00
2018-06-22T09:22:23.198Z,0.00
2018-06-22T09:23:23.175Z,4.00
2018-06-22T09:24:23.178Z,4.00
2018-06-22T09:25:23.161Z,4.00
2018-06-22T09:26:23.115Z,4.00
2018-06-22T09:27:23.092Z,8.00
2018-06-22T09:28:23.069Z,8.00
2018-06-22T09:29:23.056Z,12.00
2018-06-22T09:30:23.033Z,16.00
2018-06-22T09:31:22.993Z,20.00
2018-06-22T09:32:22.960Z,28.00
2018-06-22T09:33:22.953Z,32.00
2018-06-22T09:34:22.910Z,44.00
2018-06-22T09:35:22.886Z,52.00
2018-06-22T09:36:22.888Z,64.00
2018-06-22T09:37:22.838Z,80.00
2018-06-22T09:38:22.818Z,96.00
2018-06-22T09:39:22.795Z,116.00
2018-06-22T09:40:22.796Z,140.00
2018-06-22T09:41:22.743Z,164.00
2018-06-22T09:42:22.748Z,200.00
2018-06-22T09:43:22.697Z,228.00
2018-06-22T09:44:22.704Z,264.00
2018-06-22T09:45:22.675Z,308.00
2018-06-22T09:46:22.626Z,348.00
2018-06-22T09:47:22.605Z,396.00
2018-06-22T09:48:22.624Z,444.00
2018-06-22T09:49:22.568Z,496.00
2018-06-22T09:50:22.540Z,548.00
2018-06-22T09:51:22.512Z,608.00
2018-06-22T09:52:22.511Z,668.00
2018-06-22T09:53:22.469Z,732.00
2018-06-22T09:54:22.440Z,804.00
2018-06-22T09:55:22.415Z,884.00
2018-06-22T09:56:22.403Z,968.00
2018-06-22T09:57:22.380Z,1060.00
2018-06-22T09:58:22.343Z,1168.00
2018-06-22T09:59:22.332Z,1276.00
2018-06-22T10:00:22.328Z,1388.00
2018-06-22T10:01:22.273Z,1504.00
2018-06-22T10:02:22.284Z,1632.00
2018-06-22T10:03:22.256Z,1768.00
2018-06-22T10:04:22.201Z,1908.00
2018-06-22T10:05:22.208Z,2056.00
2018-06-22T10:06:22.169Z,2196.00
2018-06-22T10:07:22.136Z,2340.00
2018-06-22T10:08:22.144Z,2476.00
2018-06-22T10:09:22.086Z,2632.00
2018-06-22T10:10:22.055Z,2796.00
2018-06-22T10:11:22.126Z,2972.00
2018-06-22T10:12:22.040Z,3196.00
2018-06-22T10:13:22.003Z,3428.00
2018-06-22T10:14:21.978Z,3632.00
2018-06-22T10:15:21.946Z,3820.00
2018-06-22T10:16:21.954Z,4032.00
2018-06-22T10:17:21.900Z,4264.00
2018-06-22T10:18:21.903Z,4464.00
2018-06-22T10:19:21.856Z,4804.00
2018-06-22T10:20:21.848Z,5032.00
2018-06-22T10:21:21.810Z,5252.00
2018-06-22T10:22:21.798Z,5532.00
2018-06-22T10:23:21.765Z,5660.00
2018-06-22T10:24:21.749Z,6192.00
2018-06-22T10:25:21.721Z,5800.00
2018-06-22T10:26:21.698Z,6844.00
2018-06-22T10:27:21.768Z,7252.00
2018-06-22T10:28:21.666Z,7460.00
2018-06-22T10:29:21.629Z,7188.00
2018-06-22T10:30:21.607Z,7036.00
2018-06-22T10:31:21.613Z,7096.00
2018-06-22T10:32:21.562Z,7872.00
2018-06-22T10:33:21.546Z,8960.00
2018-06-22T10:34:21.515Z,9260.00
2018-06-22T10:35:21.526Z,9464.00
2018-06-22T10:36:21.500Z,9824.00
2018-06-22T10:37:21.455Z,9560.00
2018-06-22T10:38:21.442Z,9592.00
2018-06-22T10:39:21.425Z,10540.00
2018-06-22T10:40:21.420Z,10512.00
2018-06-22T10:41:21.375Z,8104.00
2018-06-22T10:42:21.360Z,10656.00
2018-06-22T10:43:21.339Z,12004.00
2018-06-22T10:44:21.339Z,11920.00
2018-06-22T10:45:21.288Z,10816.00
2018-06-22T10:46:21.266Z,10592.00
2018-06-22T10:47:21.272Z,7120.00
2018-06-22T10:48:21.256Z,7532.00
2018-06-22T10:49:21.204Z,8236.00
2018-06-22T10:50:21.193Z,9620.00
2018-06-22T10:51:21.165Z,7976.00
2018-06-22T10:52:21.143Z,8336.00
2018-06-22T10:53:21.117Z,8324.00
2018-06-22T10:54:21.102Z,8460.00
2018-06-22T10:55:21.079Z,8588.00
2018-06-22T10:56:21.058Z,10656.00
2018-06-22T10:57:21.067Z,12044.00
2018-06-22T10:58:21.045Z,9472.00
2018-06-22T10:59:21.023Z,14204.00
2018-06-22T11:00:20.973Z,9204.00
2018-06-22T11:01:20.961Z,13420.00
2018-06-22T11:02:20.933Z,14536.00
2018-06-22T11:03:20.916Z,12600.00
2018-06-22T11:04:20.899Z,9892.00
2018-06-22T11:05:20.894Z,12172.00
2018-06-22T11:06:20.849Z,9152.00
2018-06-22T11:07:20.851Z,9164.00
2018-06-22T11:08:20.812Z,9404.00
2018-06-22T11:09:20.784Z,9512.00
2018-06-22T11:10:20.765Z,9680.00
2018-06-22T11:11:20.760Z,9912.00
2018-06-22T11:12:20.735Z,10012.00
2018-06-22T11:13:20.706Z,10088.00
2018-06-22T11:14:20.715Z,10208.00
2018-06-22T11:15:20.664Z,10384.00
2018-06-22T11:16:20.641Z,10140.00
2018-06-22T11:17:20.668Z,10224.00
2018-06-22T11:18:20.696Z,10640.00
2018-06-22T11:19:20.588Z,10668.00
2018-06-22T11:20:20.566Z,10540.00
2018-06-22T11:21:20.560Z,10660.00
2018-06-22T11:22:20.529Z,10912.00
2018-06-22T11:23:20.500Z,12960.00
2018-06-22T11:24:20.513Z,14604.00
2018-06-22T11:25:20.492Z,11092.00
2018-06-22T11:26:20.447Z,11164.00
2018-06-22T11:27:20.472Z,11268.00
2018-06-22T11:28:20.411Z,11424.00
2018-06-22T11:29:20.411Z,11632.00
2018-06-22T11:30:20.379Z,11980.00
2018-06-22T11:31:20.349Z,12428.00
2018-06-22T11:32:20.323Z,12412.00
2018-06-22T11:33:20.316Z,13560.00
2018-06-22T11:34:20.275Z,12368.00
2018-06-22T11:35:20.264Z,15700.00
2018-06-22T11:36:20.277Z,12912.00
2018-06-22T11:37:20.222Z,12664.00
2018-06-22T11:38:20.212Z,12380.00
2018-06-22T11:39:20.178Z,12276.00
2018-06-22T11:40:20.191Z,12384.00
2018-06-22T11:41:20.212Z,12096.00
2018-06-22T11:42:20.130Z,12816.00
2018-06-22T11:43:20.108Z,12052.00
2018-06-22T11:44:20.073Z,11832.00
2018-06-22T11:45:20.084Z,11652.00
2018-06-22T11:46:20.039Z,11668.00
2018-06-22T11:47:20.016Z,11852.00
2018-06-22T11:48:20.025Z,15364.00
2018-06-22T11:49:20.003Z,11940.00
2018-06-22T11:50:19.958Z,11980.00
2018-06-22T11:51:19.966Z,12312.00
2018-06-22T11:52:19.919Z,13352.00
2018-06-22T11:53:19.899Z,21984.00
2018-06-22T11:54:19.875Z,21536.00
2018-06-22T11:55:19.885Z,17984.00
2018-06-22T11:56:19.840Z,20032.00
2018-06-22T11:57:19.829Z,14664.00
2018-06-22T11:58:19.812Z,14964.00
2018-06-22T11:59:19.786Z,15872.00
2018-06-22T12:00:19.786Z,15804.00
2018-06-22T12:01:19.771Z,16100.00
2018-06-22T12:02:19.748Z,18272.00
2018-06-22T12:03:19.711Z,16460.00
2018-06-22T12:04:19.685Z,16228.00
2018-06-22T12:05:19.696Z,17696.00
2018-06-22T12:06:19.642Z,16044.00
2018-06-22T12:07:19.657Z,17088.00
2018-06-22T12:08:19.638Z,21792.00
2018-06-22T12:09:19.619Z,26208.00
2018-06-22T12:10:19.585Z,18912.00
2018-06-22T12:11:19.558Z,18784.00
2018-06-22T12:12:19.531Z,16268.00
2018-06-22T12:13:19.521Z,15880.00
2018-06-22T12:14:19.529Z,16060.00
2018-06-22T12:15:19.488Z,17216.00
2018-06-22T12:16:19.488Z,17440.00
2018-06-22T12:17:19.441Z,17632.00
2018-06-22T12:18:19.451Z,17696.00
2018-06-22T12:19:19.456Z,29280.00
2018-06-22T12:20:19.414Z,20704.00
2018-06-22T12:21:19.368Z,15908.00
2018-06-22T12:22:19.343Z,16272.00
2018-06-22T12:23:19.339Z,17568.00
2018-06-22T12:24:19.343Z,18976.00
2018-06-22T12:25:19.309Z,31616.00
2018-06-22T12:26:19.292Z,32512.00
2018-06-22T12:27:19.262Z,24320.00
2018-06-22T12:28:19.261Z,21600.00
2018-06-22T12:29:19.241Z,33664.00
2018-06-22T12:30:19.209Z,20288.00
2018-06-22T12:31:19.225Z,19840.00
2018-06-22T12:32:19.188Z,19680.00
2018-06-22T12:33:19.164Z,19456.00
2018-06-22T12:34:19.159Z,20800.00
2018-06-22T12:35:19.157Z,30784.00
2018-06-22T12:36:19.144Z,32960.00
2018-06-22T12:37:19.092Z,29376.00
2018-06-22T12:38:19.111Z,21472.00
2018-06-22T12:39:19.064Z,23552.00
2018-06-22T12:40:19.054Z,31648.00
2018-06-22T12:41:19.036Z,27840.00
2018-06-22T12:42:19.029Z,23616.00
2018-06-22T12:43:19.010Z,22528.00
2018-06-22T12:44:18.986Z,21344.00
2018-06-22T12:45:18.996Z,35616.00
2018-06-22T12:46:18.960Z,35840.00
2018-06-22T12:47:18.965Z,33952.00
2018-06-22T12:48:18.952Z,31776.00
2018-06-22T12:49:19.317Z,35072.00
2018-06-22T12:50:18.901Z,38272.00
2018-06-22T12:51:18.909Z,29088.00
2018-06-22T12:52:18.865Z,34464.00
2018-06-22T12:53:18.848Z,37728.00
2018-06-22T12:54:18.846Z,30528.00
2018-06-22T12:55:18.827Z,26560.00